createdAt,value
2023-02-11T00:01:43.522Z,86.28
2023-02-11T00:04:12.918Z,86.78
2023-02-11T00:06:42.715Z,86.54
2023-02-11T00:09:12.141Z,88.24
2023-02-11T00:11:41.467Z,89.07
2023-02-11T00:14:12.599Z,89.57
2023-02-11T00:16:42.450Z,90.95
2023-02-11T00:19:11.918Z,90.30
2023-02-11T00:21:41.245Z,89.50
2023-02-11T00:24:10.710Z,89.73
2023-02-11T00:26:40.254Z,90.22
2023-02-11T00:29:11.378Z,90.31
2023-02-11T00:31:43.891Z,90.26
2023-02-11T00:34:15.120Z,90.34
2023-02-11T00:36:44.572Z,90.37
2023-02-11T00:39:14.461Z,90.52
2023-02-11T00:41:43.689Z,90.27
2023-02-11T00:44:15.956Z,89.91
2023-02-11T00:46:45.709Z,89.67
2023-02-11T00:49:16.438Z,89.61
2023-02-11T00:51:46.351Z,89.88
2023-02-11T00:54:15.734Z,91.09
2023-02-11T00:56:45.593Z,90.89
2023-02-11T00:59:17.466Z,90.60
2023-02-11T01:01:47.645Z,86.69
2023-02-11T01:04:18.289Z,86.52
2023-02-11T01:06:48.377Z,87.87
2023-02-11T01:09:18.385Z,87.64
2023-02-11T01:11:49.023Z,88.43
2023-02-11T01:14:19.315Z,88.19
2023-02-11T01:16:48.952Z,89.53
2023-02-11T01:19:18.546Z,89.29
2023-02-11T01:21:49.205Z,90.75
2023-02-11T01:24:19.437Z,91.24
2023-02-11T01:26:49.917Z,91.37
2023-02-11T01:29:19.131Z,90.95
2023-02-11T01:31:50.330Z,91.29
2023-02-11T01:34:21.347Z,90.91
2023-02-11T01:36:59.486Z,90.93
2023-02-11T01:39:34.721Z,90.83
2023-02-11T01:42:06.432Z,89.81
2023-02-11T01:44:40.760Z,89.89
2023-02-11T01:47:12.544Z,89.32
2023-02-11T01:49:46.969Z,88.87
2023-02-11T01:52:25.379Z,89.02
2023-02-11T01:55:21.154Z,88.99
2023-02-11T01:57:57.782Z,89.00
2023-02-11T02:00:39.613Z,89.15
2023-02-11T02:03:19.085Z,89.42
2023-02-11T02:06:22.048Z,89.12
2023-02-11T02:09:02.505Z,89.62
2023-02-11T02:11:34.250Z,89.25
2023-02-11T02:14:06.807Z,89.91
2023-02-11T02:16:39.226Z,90.16
2023-02-11T02:19:27.591Z,89.66
2023-02-11T02:22:03.935Z,89.80
2023-02-11T02:24:46.272Z,90.23
2023-02-11T02:27:43.252Z,90.80
2023-02-11T02:30:22.251Z,91.31
2023-02-11T02:33:22.816Z,91.52
2023-02-11T02:36:07.522Z,90.77
2023-02-11T02:38:55.790Z,90.96
2023-02-11T02:41:32.144Z,90.66
2023-02-11T02:44:02.944Z,90.33
2023-02-11T02:46:34.343Z,91.53
2023-02-11T02:49:04.469Z,90.28
2023-02-11T02:51:44.211Z,89.30
2023-02-11T02:54:38.799Z,88.03
2023-02-11T02:57:51.164Z,88.74
2023-02-11T03:00:52.220Z,88.68
2023-02-11T03:03:37.305Z,89.23
2023-02-11T03:06:24.379Z,89.00
2023-02-11T03:09:35.631Z,89.65
2023-02-11T03:12:09.020Z,89.35
2023-02-11T03:14:42.036Z,88.97
2023-02-11T03:17:11.932Z,90.56
2023-02-11T03:19:46.391Z,90.90
2023-02-11T03:22:22.750Z,91.09
2023-02-11T03:24:53.406Z,90.98
2023-02-11T03:27:31.856Z,91.51
2023-02-11T03:30:29.266Z,91.38
2023-02-11T03:33:06.529Z,91.61
2023-02-11T03:35:46.288Z,91.70
2023-02-11T03:38:23.844Z,91.68
2023-02-11T03:40:56.404Z,92.70
2023-02-11T03:43:32.976Z,92.86
2023-02-11T03:46:04.936Z,92.68
2023-02-11T03:48:39.024Z,92.66
2023-02-11T03:51:11.710Z,93.20
2023-02-11T03:53:44.336Z,93.26
2023-02-11T03:56:22.192Z,92.82
2023-02-11T03:58:52.787Z,92.95
2023-02-11T04:01:23.196Z,92.83
2023-02-11T04:03:54.056Z,92.59
2023-02-11T04:06:26.424Z,92.15
2023-02-11T04:08:55.961Z,90.87
2023-02-11T04:11:25.028Z,90.54
2023-02-11T04:13:54.317Z,89.96
2023-02-11T04:16:24.649Z,89.10
2023-02-11T04:18:54.635Z,88.61
2023-02-11T04:21:24.478Z,88.43
2023-02-11T04:23:54.590Z,88.65
2023-02-11T04:26:23.988Z,88.97
2023-02-11T04:28:53.944Z,89.42
2023-02-11T04:31:25.005Z,89.10
2023-02-11T04:33:53.743Z,89.27
2023-02-11T04:36:23.603Z,89.50
2023-02-11T04:38:53.158Z,89.85
2023-02-11T04:41:22.452Z,89.55
2023-02-11T04:43:51.612Z,89.15
2023-02-11T04:46:21.113Z,89.71
2023-02-11T04:48:50.278Z,89.96
2023-02-11T04:51:19.896Z,89.97
2023-02-11T04:53:49.774Z,89.59
2023-02-11T04:56:18.776Z,89.24
2023-02-11T04:58:48.057Z,89.83
2023-02-11T05:01:17.887Z,89.65
2023-02-11T05:03:46.775Z,89.19
2023-02-11T05:06:15.959Z,88.88
2023-02-11T05:08:46.078Z,89.10
2023-02-11T05:11:18.026Z,89.74
2023-02-11T05:13:48.065Z,89.87
2023-02-11T05:16:17.590Z,89.11
2023-02-11T05:18:47.138Z,87.48
2023-02-11T05:21:19.169Z,86.65
2023-02-11T05:23:48.125Z,88.39
2023-02-11T05:26:17.911Z,88.81
2023-02-11T05:28:47.042Z,88.08
2023-02-11T05:31:17.562Z,87.44
2023-02-11T05:33:46.449Z,87.43
2023-02-11T05:36:17.294Z,88.73
2023-02-11T05:38:46.079Z,88.90
2023-02-11T05:41:15.598Z,89.51
2023-02-11T05:43:44.857Z,90.03
2023-02-11T05:46:13.647Z,90.25
2023-02-11T05:48:42.756Z,90.53
2023-02-11T05:51:13.132Z,90.32
2023-02-11T05:53:45.782Z,89.79
2023-02-11T05:56:22.498Z,89.38
2023-02-11T05:58:51.320Z,88.58
2023-02-11T06:01:20.114Z,88.15
2023-02-11T06:03:50.399Z,88.10
2023-02-11T06:06:18.907Z,88.12
2023-02-11T06:08:49.241Z,87.91
2023-02-11T06:11:19.115Z,87.87
2023-02-11T06:13:48.970Z,88.00
2023-02-11T06:16:18.320Z,88.00
2023-02-11T06:18:47.464Z,87.79
2023-02-11T06:21:16.148Z,87.75
2023-02-11T06:23:45.146Z,87.55
2023-02-11T06:26:20.989Z,86.74
2023-02-11T06:28:49.782Z,86.57
2023-02-11T06:31:19.421Z,85.53
2023-02-11T06:33:48.295Z,86.34
2023-02-11T06:36:20.719Z,85.74
2023-02-11T06:38:50.053Z,85.12
2023-02-11T06:41:22.771Z,85.14
2023-02-11T06:43:53.106Z,86.91
2023-02-11T06:46:22.512Z,85.71
2023-02-11T06:48:51.145Z,83.97
2023-02-11T06:51:20.235Z,84.35
2023-02-11T06:53:49.433Z,84.03
2023-02-11T06:56:23.284Z,82.36
2023-02-11T06:58:56.149Z,79.68
2023-02-11T07:01:26.205Z,78.31
2023-02-11T07:03:55.542Z,76.41
2023-02-11T07:06:28.299Z,77.58
2023-02-11T07:08:56.927Z,76.63
2023-02-11T07:11:28.636Z,72.04
2023-02-11T07:14:02.267Z,69.93
2023-02-11T07:16:32.010Z,67.62
2023-02-11T07:19:00.661Z,67.36
2023-02-11T07:21:29.347Z,65.33
2023-02-11T07:23:58.132Z,64.65
2023-02-11T07:26:29.250Z,65.14
2023-02-11T07:28:57.860Z,64.84
2023-02-11T07:31:29.158Z,63.96
2023-02-11T07:34:00.773Z,63.81
2023-02-11T07:36:30.799Z,63.52
2023-02-11T07:39:00.536Z,62.56
2023-02-11T07:41:29.192Z,61.76
2023-02-11T07:43:58.373Z,60.42
2023-02-11T07:46:28.419Z,59.96
2023-02-11T07:48:57.381Z,59.41
2023-02-11T07:51:31.289Z,58.51
2023-02-11T07:54:01.136Z,57.35
2023-02-11T07:56:31.008Z,56.46
2023-02-11T07:59:02.407Z,55.22
2023-02-11T08:01:31.158Z,55.33
2023-02-11T08:04:02.986Z,54.57
2023-02-11T08:06:34.318Z,53.50
2023-02-11T08:09:09.899Z,51.86
2023-02-11T08:11:45.841Z,51.70
2023-02-11T08:14:21.505Z,51.48
2023-02-11T08:16:50.206Z,49.86
2023-02-11T08:19:19.292Z,51.32
2023-02-11T08:21:48.077Z,47.33
2023-02-11T08:24:17.476Z,47.62
2023-02-11T08:26:46.379Z,47.78
2023-02-11T08:29:17.208Z,47.70
2023-02-11T08:31:48.428Z,47.95
2023-02-11T08:34:20.514Z,48.18
2023-02-11T08:36:49.709Z,48.28
2023-02-11T08:39:21.931Z,48.65
2023-02-11T08:41:56.791Z,48.18
2023-02-11T08:44:25.615Z,48.03
2023-02-11T08:47:00.669Z,47.32
2023-02-11T08:49:34.433Z,47.16
2023-02-11T08:52:04.664Z,45.60
2023-02-11T08:54:33.041Z,44.50
2023-02-11T08:57:02.338Z,44.16
2023-02-11T08:59:31.528Z,44.31
2023-02-11T09:02:00.174Z,42.90
2023-02-11T09:04:29.108Z,43.48
2023-02-11T09:06:58.207Z,44.22
2023-02-11T09:09:27.654Z,42.25
2023-02-11T09:11:57.774Z,42.56
2023-02-11T09:14:27.548Z,42.34
2023-02-11T09:16:56.677Z,40.63
2023-02-11T09:19:26.442Z,40.30
2023-02-11T09:21:55.228Z,39.11
2023-02-11T09:24:23.929Z,39.15
2023-02-11T09:26:52.706Z,39.89
2023-02-11T09:29:21.489Z,39.79
2023-02-11T09:31:50.619Z,39.06
2023-02-11T09:34:19.586Z,39.55
2023-02-11T09:36:48.568Z,37.32
2023-02-11T09:39:20.473Z,37.69
2023-02-11T09:42:04.373Z,37.36
2023-02-11T09:44:35.958Z,38.17
2023-02-11T09:47:16.388Z,37.49
2023-02-11T09:49:49.339Z,39.22
2023-02-11T09:52:59.229Z,39.59
2023-02-11T09:55:38.090Z,41.63
2023-02-11T09:58:21.712Z,43.20
2023-02-11T10:01:02.610Z,43.44
2023-02-11T10:04:07.765Z,43.87
2023-02-11T10:06:47.150Z,44.76
2023-02-11T10:09:37.087Z,44.63
2023-02-11T10:12:11.542Z,43.88
2023-02-11T10:15:05.722Z,43.15
2023-02-11T10:18:12.812Z,42.99
2023-02-11T10:21:04.351Z,42.46
2023-02-11T10:23:41.521Z,42.01
2023-02-11T10:26:17.186Z,41.24
2023-02-11T10:28:50.046Z,40.06
2023-02-11T10:31:24.971Z,38.95
2023-02-11T10:34:07.596Z,39.73
2023-02-11T10:36:40.003Z,38.49
2023-02-11T10:39:16.336Z,37.57
2023-02-11T10:42:00.057Z,36.82
2023-02-11T10:44:41.871Z,38.00
2023-02-11T10:47:21.512Z,38.22
2023-02-11T10:49:50.603Z,38.30
2023-02-11T10:52:28.176Z,38.51
2023-02-11T10:55:01.898Z,37.58
2023-02-11T10:57:46.764Z,37.20
2023-02-11T11:00:18.687Z,35.85
2023-02-11T11:02:58.794Z,36.01
2023-02-11T11:05:37.703Z,35.27
2023-02-11T11:08:09.192Z,35.12
2023-02-11T11:11:04.676Z,34.57
2023-02-11T11:13:53.135Z,34.39
2023-02-11T11:16:24.853Z,33.19
2023-02-11T11:19:07.669Z,34.10
2023-02-11T11:21:41.204Z,34.21
2023-02-11T11:24:24.971Z,34.39
2023-02-11T11:26:57.672Z,34.44
2023-02-11T11:29:32.406Z,33.29
2023-02-11T11:32:13.416Z,31.83
2023-02-11T11:34:45.348Z,31.93
2023-02-11T11:37:35.773Z,30.80
2023-02-11T11:40:16.389Z,30.82
2023-02-11T11:42:44.848Z,30.30
2023-02-11T11:45:16.069Z,30.64
2023-02-11T11:48:07.354Z,31.56
2023-02-11T11:50:50.396Z,31.44
2023-02-11T11:53:31.567Z,30.61
2023-02-11T11:56:00.356Z,32.40
2023-02-11T11:58:31.291Z,32.68
2023-02-11T12:01:37.812Z,32.66
2023-02-11T12:04:47.174Z,33.44
2023-02-11T12:07:36.995Z,33.19
2023-02-11T12:10:15.045Z,31.92
2023-02-11T12:12:46.465Z,30.93
2023-02-11T12:15:56.701Z,30.95
2023-02-11T12:19:06.553Z,30.40
2023-02-11T12:21:43.943Z,31.21
2023-02-11T12:24:39.045Z,30.72
2023-02-11T12:27:30.666Z,30.39
2023-02-11T12:30:36.678Z,29.87
2023-02-11T12:33:36.881Z,30.09
2023-02-11T12:36:14.071Z,30.57
2023-02-11T12:39:08.839Z,31.55
2023-02-11T12:42:08.547Z,31.68
2023-02-11T12:44:56.587Z,31.87
2023-02-11T12:48:05.724Z,30.47
2023-02-11T12:51:06.668Z,31.86
2023-02-11T12:53:41.501Z,32.44
2023-02-11T12:56:43.253Z,32.01
2023-02-11T12:59:50.266Z,32.45
2023-02-11T13:02:48.003Z,31.69
2023-02-11T13:05:54.374Z,32.07
2023-02-11T13:08:47.435Z,32.31
2023-02-11T13:11:38.240Z,32.44
2023-02-11T13:14:16.757Z,31.24
2023-02-11T13:16:48.478Z,30.99
2023-02-11T13:19:27.699Z,32.28
2023-02-11T13:22:05.647Z,31.97
2023-02-11T13:24:44.982Z,32.51
2023-02-11T13:27:25.234Z,31.79
2023-02-11T13:30:01.205Z,32.33
2023-02-11T13:32:56.119Z,32.17
2023-02-11T13:35:43.312Z,32.01
2023-02-11T13:38:22.984Z,32.42
2023-02-11T13:41:21.400Z,32.41
2023-02-11T13:44:10.400Z,32.25
2023-02-11T13:46:50.966Z,32.50
2023-02-11T13:49:51.189Z,33.16
2023-02-11T13:52:24.787Z,33.51
2023-02-11T13:54:57.259Z,34.39
2023-02-11T13:57:35.472Z,35.20
2023-02-11T14:00:43.994Z,37.33
2023-02-11T14:03:30.831Z,38.38
2023-02-11T14:06:27.032Z,38.48
2023-02-11T14:09:11.718Z,41.22
2023-02-11T14:11:52.468Z,41.78
2023-02-11T14:14:27.383Z,42.31
2023-02-11T14:16:59.165Z,43.13
2023-02-11T14:19:33.793Z,42.76
2023-02-11T14:22:04.551Z,42.99
2023-02-11T14:24:33.091Z,43.47
2023-02-11T14:27:11.099Z,43.66
2023-02-11T14:29:59.417Z,43.21
2023-02-11T14:32:53.235Z,44.90
2023-02-11T14:36:02.809Z,45.98
2023-02-11T14:38:40.312Z,45.62
2023-02-11T14:41:24.706Z,47.95
2023-02-11T14:43:58.933Z,47.09
2023-02-11T14:46:31.147Z,47.38
2023-02-11T14:49:03.917Z,48.06
2023-02-11T14:51:36.991Z,48.52
2023-02-11T14:54:15.596Z,47.55
2023-02-11T14:56:44.954Z,48.06
2023-02-11T14:59:23.009Z,48.51
2023-02-11T15:01:57.510Z,48.51
2023-02-11T15:04:31.627Z,48.71
2023-02-11T15:07:06.557Z,48.84
2023-02-11T15:09:54.594Z,49.76
2023-02-11T15:12:26.764Z,49.59
2023-02-11T15:14:59.354Z,50.91
2023-02-11T15:17:32.003Z,50.46
2023-02-11T15:20:02.862Z,50.84
2023-02-11T15:22:37.170Z,50.17
2023-02-11T15:25:17.626Z,51.09
2023-02-11T15:27:54.378Z,52.23
2023-02-11T15:30:22.994Z,52.98
2023-02-11T15:32:53.972Z,52.92
2023-02-11T15:35:23.320Z,53.18
2023-02-11T15:37:52.223Z,54.05
2023-02-11T15:40:25.212Z,54.40
2023-02-11T15:43:04.181Z,55.62
2023-02-11T15:45:43.166Z,56.83
2023-02-11T15:48:15.940Z,55.60
2023-02-11T15:50:52.759Z,56.02
2023-02-11T15:53:37.784Z,56.46
2023-02-11T15:56:30.127Z,56.57
2023-02-11T15:59:09.262Z,56.66
2023-02-11T16:01:41.959Z,57.64
2023-02-11T16:16:53.709Z,57.32
2023-02-11T16:19:25.678Z,57.54
2023-02-11T16:21:57.147Z,57.33
2023-02-11T16:24:32.523Z,57.52
2023-02-11T16:27:03.860Z,57.80
2023-02-11T16:29:36.750Z,58.06
2023-02-11T16:32:21.214Z,57.96
2023-02-11T16:34:51.118Z,58.37
2023-02-11T16:37:19.901Z,58.37
2023-02-11T16:39:49.203Z,58.30
2023-02-11T16:42:17.667Z,57.45
2023-02-11T16:44:46.271Z,57.28
2023-02-11T16:47:26.222Z,56.79
2023-02-11T16:49:56.543Z,58.75
2023-02-11T17:05:56.174Z,59.09
2023-02-11T17:08:25.024Z,58.20
2023-02-11T17:10:53.873Z,57.59
2023-02-11T17:13:22.993Z,58.32
2023-02-11T17:15:51.769Z,58.56
2023-02-11T17:18:20.837Z,57.63
2023-02-11T17:20:49.938Z,57.40
2023-02-11T17:23:18.560Z,57.19
2023-02-11T17:25:47.004Z,57.00
2023-02-11T17:28:15.634Z,58.66
2023-02-11T17:30:44.419Z,59.23
2023-02-11T17:33:13.160Z,59.34
2023-02-11T17:35:42.147Z,59.46
2023-02-11T17:38:11.045Z,58.15
2023-02-11T17:40:40.449Z,57.98
2023-02-11T17:43:09.226Z,57.71
2023-02-11T17:45:42.169Z,57.65
2023-02-11T17:48:10.998Z,58.96
2023-02-11T17:50:39.584Z,56.63
2023-02-11T17:53:08.574Z,57.84
2023-02-11T17:55:38.746Z,57.76
2023-02-11T17:58:07.930Z,59.53
2023-02-11T18:00:36.641Z,61.39
2023-02-11T18:03:05.365Z,60.29
2023-02-11T18:05:35.856Z,59.27
2023-02-11T18:08:07.460Z,59.70
2023-02-11T18:10:36.790Z,61.08
2023-02-11T18:13:05.335Z,61.43
2023-02-11T18:15:34.430Z,62.01
2023-02-11T18:18:03.008Z,61.89
2023-02-11T18:20:31.799Z,62.48
2023-02-11T18:23:00.581Z,62.54
2023-02-11T18:25:30.502Z,63.01
2023-02-11T18:27:59.007Z,63.33
2023-02-11T18:30:28.384Z,63.78
2023-02-11T18:32:57.172Z,64.49
2023-02-11T18:35:25.866Z,64.13
2023-02-11T18:37:54.335Z,64.46
2023-02-11T18:40:22.843Z,64.57
2023-02-11T18:42:53.438Z,64.17
2023-02-11T18:45:22.202Z,64.24
2023-02-11T18:47:50.781Z,63.59
2023-02-11T18:50:22.212Z,63.00
2023-02-11T18:52:50.960Z,63.70
2023-02-11T18:55:23.588Z,64.15
2023-02-11T18:57:53.253Z,65.41
2023-02-11T19:00:22.244Z,65.47
2023-02-11T19:02:53.198Z,64.74
2023-02-11T19:05:21.940Z,66.19
2023-02-11T19:07:50.444Z,65.52
2023-02-11T19:10:19.439Z,66.12
2023-02-11T19:12:48.230Z,66.76
2023-02-11T19:15:17.426Z,66.93
2023-02-11T19:17:46.005Z,65.38
2023-02-11T19:20:15.043Z,64.61
2023-02-11T19:22:43.581Z,64.53
2023-02-11T19:25:12.674Z,65.52
2023-02-11T19:27:42.003Z,66.09
2023-02-11T19:30:11.041Z,66.99
2023-02-11T19:32:39.609Z,67.72
2023-02-11T19:35:08.542Z,67.67
2023-02-11T19:37:37.027Z,67.45
2023-02-11T19:40:06.593Z,67.42
2023-02-11T19:42:35.040Z,67.31
2023-02-11T19:45:04.104Z,67.10
2023-02-11T19:47:32.997Z,68.00
2023-02-11T19:50:01.581Z,67.26
2023-02-11T19:52:30.573Z,67.28
2023-02-11T19:55:00.897Z,67.22
2023-02-11T19:57:29.275Z,66.52
2023-02-11T19:59:57.878Z,68.73
2023-02-11T20:02:26.586Z,68.95
2023-02-11T20:04:55.947Z,69.16
2023-02-11T20:07:24.634Z,68.06
2023-02-11T20:09:54.034Z,67.10
2023-02-11T20:12:22.614Z,68.07
2023-02-11T20:14:52.321Z,67.85
2023-02-11T20:17:20.790Z,67.59
2023-02-11T20:19:49.387Z,67.70
2023-02-11T20:22:18.086Z,67.23
2023-02-11T20:24:46.964Z,67.04
2023-02-11T20:27:17.301Z,65.93
2023-02-11T20:29:46.992Z,64.86
2023-02-11T20:32:15.740Z,64.86
2023-02-11T20:34:44.669Z,68.16
2023-02-11T20:37:13.360Z,68.88
2023-02-11T20:39:45.321Z,69.08
2023-02-11T20:42:15.324Z,70.15
2023-02-11T20:44:43.921Z,70.78
2023-02-11T20:47:12.816Z,71.20
2023-02-11T20:49:41.288Z,71.92
2023-02-11T20:52:09.856Z,71.65
2023-02-11T20:54:38.234Z,72.80
2023-02-11T20:57:07.554Z,72.72
2023-02-11T20:59:36.138Z,72.48
2023-02-11T21:02:04.842Z,72.43
2023-02-11T21:04:33.715Z,72.78
2023-02-11T21:07:02.837Z,72.07
2023-02-11T21:09:33.674Z,71.36
2023-02-11T21:12:02.944Z,70.50
2023-02-11T21:14:31.841Z,71.94
2023-02-11T21:17:00.729Z,71.74
2023-02-11T21:19:29.312Z,71.77
2023-02-11T21:22:00.807Z,72.34
2023-02-11T21:24:31.187Z,72.14
2023-02-11T21:26:59.796Z,71.80
2023-02-11T21:29:28.523Z,70.28
2023-02-11T21:31:57.104Z,68.47
2023-02-11T21:34:25.931Z,68.13
2023-02-11T21:36:55.032Z,69.30
2023-02-11T21:39:23.711Z,71.23
2023-02-11T21:41:52.501Z,72.56
2023-02-11T21:44:21.494Z,71.01
2023-02-11T21:46:50.114Z,69.89
2023-02-11T21:49:20.521Z,71.14
2023-02-11T21:51:49.087Z,73.03
2023-02-11T21:54:19.099Z,73.91
2023-02-11T21:56:50.968Z,74.10
2023-02-11T21:59:20.674Z,72.82
2023-02-11T22:01:49.335Z,72.04
2023-02-11T22:04:18.478Z,71.88
2023-02-11T22:06:47.145Z,71.83
2023-02-11T22:09:16.139Z,71.15
2023-02-11T22:11:44.876Z,71.76
2023-02-11T22:14:13.815Z,72.31
2023-02-11T22:16:45.727Z,72.75
2023-02-11T22:19:14.872Z,71.23
2023-02-11T22:21:43.769Z,68.73
2023-02-11T22:24:13.584Z,69.28
2023-02-11T22:26:42.259Z,67.69
2023-02-11T22:29:12.725Z,67.82
2023-02-11T22:31:41.505Z,67.28
2023-02-11T22:34:10.879Z,66.81
2023-02-11T22:36:41.719Z,67.01
2023-02-11T22:39:16.030Z,68.05
2023-02-11T22:41:47.361Z,70.62
2023-02-11T22:44:17.589Z,71.85
2023-02-11T22:46:46.663Z,70.39
2023-02-11T22:49:17.518Z,70.28
2023-02-11T22:51:46.712Z,68.97
2023-02-11T22:54:18.405Z,67.71
2023-02-11T22:56:51.467Z,67.82
2023-02-11T22:59:20.560Z,69.06
2023-02-11T23:01:49.734Z,67.76
2023-02-11T23:04:19.523Z,67.25
2023-02-11T23:06:48.770Z,70.11
2023-02-11T23:09:18.173Z,72.13
2023-02-11T23:11:48.860Z,72.75
2023-02-11T23:14:17.697Z,73.02
2023-02-11T23:16:46.502Z,70.89
2023-02-11T23:19:15.260Z,72.55
2023-02-11T23:21:44.189Z,74.31
2023-02-11T23:24:15.281Z,74.27
2023-02-11T23:26:44.986Z,73.65
2023-02-11T23:29:14.615Z,73.95
2023-02-11T23:31:46.363Z,74.07
2023-02-11T23:34:24.273Z,72.69
2023-02-11T23:36:53.371Z,70.63
2023-02-11T23:39:22.155Z,70.65
2023-02-11T23:41:52.994Z,71.15
2023-02-11T23:44:21.781Z,76.07
2023-02-11T23:46:50.769Z,71.71
2023-02-11T23:49:19.462Z,75.26
2023-02-11T23:51:48.186Z,73.95
2023-02-11T23:54:16.885Z,72.13
2023-02-11T23:56:46.882Z,71.31
2023-02-11T23:59:16.159Z,71.77
